sensor_id;sensor_type;location;lat;lon;timestamp;P1;durP1;ratioP1;P2;durP2;ratioP2
35644;SDS011;21764;52.042;6.830;2024-02-21T00:03:42;53.40;;;19.52;;
35644;SDS011;21764;52.042;6.830;2024-02-21T00:08:43;53.13;;;21.27;;
35644;SDS011;21764;52.042;6.830;2024-02-21T00:13:44;45.13;;;19.30;;
35644;SDS011;21764;52.042;6.830;2024-02-21T00:18:45;53.20;;;20.48;;
35644;SDS011;21764;52.042;6.830;2024-02-21T00:23:46;60.20;;;21.17;;
35644;SDS011;21764;52.042;6.830;2024-02-21T00:28:47;48.25;;;20.70;;
35644;SDS011;21764;52.042;6.830;2024-02-21T00:33:48;53.63;;;20.05;;
35644;SDS011;21764;52.042;6.830;2024-02-21T00:38:50;44.10;;;19.58;;
35644;SDS011;21764;52.042;6.830;2024-02-21T00:43:51;65.05;;;21.45;;
35644;SDS011;21764;52.042;6.830;2024-02-21T00:48:52;49.15;;;19.13;;
35644;SDS011;21764;52.042;6.830;2024-02-21T00:53:53;58.55;;;21.17;;
35644;SDS011;21764;52.042;6.830;2024-02-21T00:58:55;52.60;;;21.40;;
35644;SDS011;21764;52.042;6.830;2024-02-21T01:03:56;56.20;;;20.55;;
35644;SDS011;21764;52.042;6.830;2024-02-21T01:08:57;50.20;;;18.00;;
35644;SDS011;21764;52.042;6.830;2024-02-21T01:13:58;50.63;;;18.70;;
35644;SDS011;21764;52.042;6.830;2024-02-21T01:18:59;50.92;;;19.30;;
35644;SDS011;21764;52.042;6.830;2024-02-21T01:24:00;59.47;;;21.20;;
35644;SDS011;21764;52.042;6.830;2024-02-21T01:29:01;47.50;;;21.15;;
35644;SDS011;21764;52.042;6.830;2024-02-21T01:34:02;52.47;;;20.35;;
35644;SDS011;21764;52.042;6.830;2024-02-21T01:39:03;58.95;;;20.83;;
35644;SDS011;21764;52.042;6.830;2024-02-21T01:44:04;48.75;;;20.63;;
35644;SDS011;21764;52.042;6.830;2024-02-21T01:49:06;63.35;;;20.88;;
35644;SDS011;21764;52.042;6.830;2024-02-21T01:54:07;57.20;;;20.35;;
35644;SDS011;21764;52.042;6.830;2024-02-21T01:59:08;58.58;;;20.00;;
35644;SDS011;21764;52.042;6.830;2024-02-21T02:04:09;55.42;;;20.02;;
35644;SDS011;21764;52.042;6.830;2024-02-21T02:09:10;46.13;;;19.85;;
35644;SDS011;21764;52.042;6.830;2024-02-21T02:14:11;52.90;;;18.92;;
35644;SDS011;21764;52.042;6.830;2024-02-21T02:19:12;51.85;;;19.92;;
35644;SDS011;21764;52.042;6.830;2024-02-21T02:24:13;49.42;;;20.02;;
35644;SDS011;21764;52.042;6.830;2024-02-21T02:29:14;52.17;;;18.45;;
35644;SDS011;21764;52.042;6.830;2024-02-21T02:34:16;47.35;;;18.92;;
35644;SDS011;21764;52.042;6.830;2024-02-21T02:39:17;48.03;;;18.63;;
35644;SDS011;21764;52.042;6.830;2024-02-21T02:44:18;40.03;;;17.60;;
35644;SDS011;21764;52.042;6.830;2024-02-21T02:49:19;48.65;;;17.95;;
35644;SDS011;21764;52.042;6.830;2024-02-21T02:54:21;42.03;;;18.40;;
35644;SDS011;21764;52.042;6.830;2024-02-21T02:59:22;48.33;;;18.25;;
35644;SDS011;21764;52.042;6.830;2024-02-21T03:04:23;59.42;;;18.90;;
35644;SDS011;21764;52.042;6.830;2024-02-21T03:09:24;42.92;;;17.13;;
35644;SDS011;21764;52.042;6.830;2024-02-21T03:14:25;50.72;;;17.45;;
35644;SDS011;21764;52.042;6.830;2024-02-21T03:19:27;54.72;;;19.55;;
35644;SDS011;21764;52.042;6.830;2024-02-21T03:24:28;45.75;;;18.23;;
35644;SDS011;21764;52.042;6.830;2024-02-21T03:29:31;48.58;;;17.23;;
35644;SDS011;21764;52.042;6.830;2024-02-21T03:34:32;44.70;;;19.50;;
35644;SDS011;21764;52.042;6.830;2024-02-21T03:39:33;36.67;;;17.90;;
35644;SDS011;21764;52.042;6.830;2024-02-21T03:44:34;46.08;;;18.23;;
35644;SDS011;21764;52.042;6.830;2024-02-21T03:49:36;36.85;;;16.95;;
35644;SDS011;21764;52.042;6.830;2024-02-21T03:54:37;40.85;;;16.55;;
35644;SDS011;21764;52.042;6.830;2024-02-21T03:59:38;38.47;;;16.73;;
35644;SDS011;21764;52.042;6.830;2024-02-21T04:04:45;45.33;;;15.88;;
35644;SDS011;21764;52.042;6.830;2024-02-21T04:14:47;40.70;;;14.70;;
35644;SDS011;21764;52.042;6.830;2024-02-21T04:19:48;38.90;;;14.55;;
35644;SDS011;21764;52.042;6.830;2024-02-21T04:24:49;47.28;;;15.60;;
35644;SDS011;21764;52.042;6.830;2024-02-21T04:29:50;47.90;;;15.48;;
35644;SDS011;21764;52.042;6.830;2024-02-21T04:34:51;45.85;;;16.20;;
35644;SDS011;21764;52.042;6.830;2024-02-21T04:39:52;42.13;;;14.35;;
35644;SDS011;21764;52.042;6.830;2024-02-21T04:44:53;37.75;;;13.60;;
35644;SDS011;21764;52.042;6.830;2024-02-21T04:49:54;37.63;;;13.50;;
35644;SDS011;21764;52.042;6.830;2024-02-21T04:54:55;35.47;;;12.98;;
35644;SDS011;21764;52.042;6.830;2024-02-21T04:59:56;34.20;;;13.07;;
35644;SDS011;21764;52.042;6.830;2024-02-21T05:04:58;43.63;;;14.73;;
35644;SDS011;21764;52.042;6.830;2024-02-21T05:09:59;46.83;;;16.98;;
35644;SDS011;21764;52.042;6.830;2024-02-21T05:15:00;35.63;;;12.43;;
35644;SDS011;21764;52.042;6.830;2024-02-21T05:20:01;34.63;;;12.63;;
35644;SDS011;21764;52.042;6.830;2024-02-21T05:25:02;31.90;;;12.48;;
35644;SDS011;21764;52.042;6.830;2024-02-21T05:30:03;30.95;;;13.40;;
35644;SDS011;21764;52.042;6.830;2024-02-21T05:35:04;32.03;;;14.18;;
35644;SDS011;21764;52.042;6.830;2024-02-21T05:40:05;32.80;;;13.55;;
35644;SDS011;21764;52.042;6.830;2024-02-21T05:45:07;30.45;;;13.75;;
35644;SDS011;21764;52.042;6.830;2024-02-21T05:50:08;35.78;;;14.20;;
35644;SDS011;21764;52.042;6.830;2024-02-21T05:55:09;31.90;;;14.45;;
35644;SDS011;21764;52.042;6.830;2024-02-21T06:00:10;36.17;;;12.55;;
35644;SDS011;21764;52.042;6.830;2024-02-21T06:05:11;39.15;;;14.70;;
35644;SDS011;21764;52.042;6.830;2024-02-21T06:10:12;32.53;;;13.82;;
35644;SDS011;21764;52.042;6.830;2024-02-21T06:15:13;34.10;;;13.40;;
35644;SDS011;21764;52.042;6.830;2024-02-21T06:20:16;48.75;;;19.95;;
35644;SDS011;21764;52.042;6.830;2024-02-21T06:25:17;39.97;;;16.42;;
35644;SDS011;21764;52.042;6.830;2024-02-21T06:30:18;38.33;;;15.57;;
35644;SDS011;21764;52.042;6.830;2024-02-21T06:35:19;37.08;;;15.38;;
35644;SDS011;21764;52.042;6.830;2024-02-21T06:40:21;32.28;;;16.05;;
35644;SDS011;21764;52.042;6.830;2024-02-21T06:45:22;41.85;;;16.73;;
35644;SDS011;21764;52.042;6.830;2024-02-21T06:50:23;44.42;;;15.93;;
35644;SDS011;21764;52.042;6.830;2024-02-21T06:55:24;29.90;;;14.75;;
35644;SDS011;21764;52.042;6.830;2024-02-21T07:00:25;33.42;;;14.95;;
35644;SDS011;21764;52.042;6.830;2024-02-21T07:05:26;36.70;;;14.65;;
35644;SDS011;21764;52.042;6.830;2024-02-21T07:10:27;38.10;;;13.50;;
35644;SDS011;21764;52.042;6.830;2024-02-21T07:15:29;34.13;;;13.77;;
35644;SDS011;21764;52.042;6.830;2024-02-21T07:20:30;35.65;;;13.48;;
35644;SDS011;21764;52.042;6.830;2024-02-21T07:25:33;34.60;;;13.48;;
35644;SDS011;21764;52.042;6.830;2024-02-21T07:30:34;31.25;;;12.63;;
35644;SDS011;21764;52.042;6.830;2024-02-21T07:35:35;28.45;;;11.60;;
35644;SDS011;21764;52.042;6.830;2024-02-21T07:40:41;30.88;;;11.55;;
35644;SDS011;21764;52.042;6.830;2024-02-21T07:45:44;29.08;;;12.05;;
35644;SDS011;21764;52.042;6.830;2024-02-21T07:50:45;33.47;;;12.07;;
35644;SDS011;21764;52.042;6.830;2024-02-21T07:55:46;31.05;;;11.15;;
35644;SDS011;21764;52.042;6.830;2024-02-21T08:00:47;25.70;;;11.02;;
35644;SDS011;21764;52.042;6.830;2024-02-21T08:05:48;30.38;;;11.35;;
35644;SDS011;21764;52.042;6.830;2024-02-21T08:10:50;40.03;;;11.15;;
35644;SDS011;21764;52.042;6.830;2024-02-21T08:15:51;28.63;;;10.75;;
35644;SDS011;21764;52.042;6.830;2024-02-21T08:20:52;29.67;;;10.52;;
35644;SDS011;21764;52.042;6.830;2024-02-21T08:25:53;26.83;;;10.48;;
35644;SDS011;21764;52.042;6.830;2024-02-21T08:30:54;26.35;;;10.10;;
35644;SDS011;21764;52.042;6.830;2024-02-21T08:35:55;26.00;;;9.40;;
35644;SDS011;21764;52.042;6.830;2024-02-21T08:40:56;25.83;;;10.50;;
35644;SDS011;21764;52.042;6.830;2024-02-21T08:45:57;21.83;;;8.80;;
35644;SDS011;21764;52.042;6.830;2024-02-21T08:50:58;28.88;;;11.00;;
35644;SDS011;21764;52.042;6.830;2024-02-21T08:55:59;23.73;;;9.57;;
35644;SDS011;21764;52.042;6.830;2024-02-21T09:01:01;24.92;;;8.93;;
35644;SDS011;21764;52.042;6.830;2024-02-21T09:06:04;28.70;;;9.85;;
35644;SDS011;21764;52.042;6.830;2024-02-21T09:11:06;33.28;;;10.00;;
35644;SDS011;21764;52.042;6.830;2024-02-21T09:16:07;20.50;;;9.40;;
35644;SDS011;21764;52.042;6.830;2024-02-21T09:21:09;20.55;;;9.63;;
35644;SDS011;21764;52.042;6.830;2024-02-21T09:26:10;43.03;;;19.45;;
35644;SDS011;21764;52.042;6.830;2024-02-21T09:31:13;24.88;;;10.65;;
35644;SDS011;21764;52.042;6.830;2024-02-21T09:36:14;25.38;;;11.05;;
35644;SDS011;21764;52.042;6.830;2024-02-21T09:41:25;25.08;;;10.80;;
35644;SDS011;21764;52.042;6.830;2024-02-21T09:46:43;31.30;;;12.02;;
35644;SDS011;21764;52.042;6.830;2024-02-21T09:51:45;23.58;;;11.10;;
35644;SDS011;21764;52.042;6.830;2024-02-21T09:56:48;27.88;;;9.43;;
35644;SDS011;21764;52.042;6.830;2024-02-21T10:01:49;22.83;;;8.65;;
35644;SDS011;21764;52.042;6.830;2024-02-21T10:06:51;20.67;;;9.25;;
35644;SDS011;21764;52.042;6.830;2024-02-21T10:11:52;28.33;;;10.13;;
35644;SDS011;21764;52.042;6.830;2024-02-21T10:16:57;18.25;;;7.70;;
35644;SDS011;21764;52.042;6.830;2024-02-21T10:22:03;25.08;;;7.75;;
35644;SDS011;21764;52.042;6.830;2024-02-21T10:27:09;13.60;;;6.68;;
35644;SDS011;21764;52.042;6.830;2024-02-21T10:32:11;23.17;;;7.13;;
35644;SDS011;21764;52.042;6.830;2024-02-21T10:37:12;13.80;;;7.05;;
35644;SDS011;21764;52.042;6.830;2024-02-21T10:42:13;14.38;;;6.55;;
35644;SDS011;21764;52.042;6.830;2024-02-21T10:47:15;18.67;;;7.18;;
35644;SDS011;21764;52.042;6.830;2024-02-21T10:52:25;26.33;;;7.63;;
35644;SDS011;21764;52.042;6.830;2024-02-21T10:57:31;20.17;;;8.10;;
35644;SDS011;21764;52.042;6.830;2024-02-21T11:02:32;29.02;;;8.07;;
35644;SDS011;21764;52.042;6.830;2024-02-21T11:07:35;16.38;;;6.40;;
35644;SDS011;21764;52.042;6.830;2024-02-21T11:12:36;13.63;;;6.13;;
35644;SDS011;21764;52.042;6.830;2024-02-21T11:17:37;16.80;;;7.80;;
35644;SDS011;21764;52.042;6.830;2024-02-21T11:22:42;27.85;;;8.30;;
35644;SDS011;21764;52.042;6.830;2024-02-21T11:32:44;23.50;;;7.63;;
35644;SDS011;21764;52.042;6.830;2024-02-21T11:37:47;27.35;;;8.05;;
35644;SDS011;21764;52.042;6.830;2024-02-21T11:42:48;22.67;;;7.57;;
35644;SDS011;21764;52.042;6.830;2024-02-21T11:47:49;23.67;;;8.75;;
35644;SDS011;21764;52.042;6.830;2024-02-21T11:52:50;21.77;;;8.35;;
35644;SDS011;21764;52.042;6.830;2024-02-21T11:57:51;22.95;;;9.02;;
35644;SDS011;21764;52.042;6.830;2024-02-21T12:02:52;22.23;;;7.45;;
35644;SDS011;21764;52.042;6.830;2024-02-21T12:07:55;17.48;;;7.38;;
35644;SDS011;21764;52.042;6.830;2024-02-21T12:13:16;25.08;;;7.28;;
35644;SDS011;21764;52.042;6.830;2024-02-21T12:18:17;15.73;;;5.90;;
35644;SDS011;21764;52.042;6.830;2024-02-21T12:23:18;14.48;;;6.60;;
35644;SDS011;21764;52.042;6.830;2024-02-21T12:28:19;14.95;;;6.28;;
35644;SDS011;21764;52.042;6.830;2024-02-21T12:33:21;17.83;;;5.95;;
35644;SDS011;21764;52.042;6.830;2024-02-21T12:38:22;21.02;;;7.10;;
35644;SDS011;21764;52.042;6.830;2024-02-21T12:43:23;15.38;;;6.15;;
35644;SDS011;21764;52.042;6.830;2024-02-21T12:48:25;18.83;;;6.15;;
35644;SDS011;21764;52.042;6.830;2024-02-21T12:53:26;19.70;;;6.38;;
35644;SDS011;21764;52.042;6.830;2024-02-21T12:58:27;16.85;;;6.38;;
35644;SDS011;21764;52.042;6.830;2024-02-21T13:03:31;14.70;;;6.05;;
35644;SDS011;21764;52.042;6.830;2024-02-21T13:08:32;16.38;;;6.65;;
35644;SDS011;21764;52.042;6.830;2024-02-21T13:13:35;18.23;;;7.18;;
35644;SDS011;21764;52.042;6.830;2024-02-21T13:18:36;20.42;;;6.53;;
35644;SDS011;21764;52.042;6.830;2024-02-21T13:23:42;18.02;;;6.53;;
35644;SDS011;21764;52.042;6.830;2024-02-21T13:28:44;18.67;;;7.03;;
35644;SDS011;21764;52.042;6.830;2024-02-21T13:33:45;24.67;;;7.70;;
35644;SDS011;21764;52.042;6.830;2024-02-21T13:38:46;20.73;;;6.88;;
35644;SDS011;21764;52.042;6.830;2024-02-21T13:43:47;20.23;;;6.80;;
35644;SDS011;21764;52.042;6.830;2024-02-21T13:48:48;16.65;;;5.45;;
35644;SDS011;21764;52.042;6.830;2024-02-21T13:53:50;16.52;;;6.75;;
35644;SDS011;21764;52.042;6.830;2024-02-21T13:58:51;20.70;;;7.03;;
35644;SDS011;21764;52.042;6.830;2024-02-21T14:03:52;18.30;;;5.88;;
35644;SDS011;21764;52.042;6.830;2024-02-21T14:08:53;19.92;;;6.68;;
35644;SDS011;21764;52.042;6.830;2024-02-21T14:13:54;20.23;;;7.10;;
35644;SDS011;21764;52.042;6.830;2024-02-21T14:18:57;16.83;;;6.15;;
35644;SDS011;21764;52.042;6.830;2024-02-21T14:23:58;22.02;;;6.57;;
35644;SDS011;21764;52.042;6.830;2024-02-21T14:29:02;24.73;;;6.95;;
35644;SDS011;21764;52.042;6.830;2024-02-21T14:34:04;21.70;;;6.28;;
35644;SDS011;21764;52.042;6.830;2024-02-21T14:39:05;15.35;;;5.55;;
35644;SDS011;21764;52.042;6.830;2024-02-21T14:44:06;21.48;;;6.30;;
35644;SDS011;21764;52.042;6.830;2024-02-21T14:49:10;13.20;;;5.55;;
35644;SDS011;21764;52.042;6.830;2024-02-21T14:54:11;18.58;;;5.35;;
35644;SDS011;21764;52.042;6.830;2024-02-21T14:59:12;15.73;;;5.53;;
35644;SDS011;21764;52.042;6.830;2024-02-21T15:04:13;21.55;;;6.82;;
35644;SDS011;21764;52.042;6.830;2024-02-21T15:09:14;21.67;;;6.07;;
35644;SDS011;21764;52.042;6.830;2024-02-21T15:14:15;20.10;;;6.50;;
35644;SDS011;21764;52.042;6.830;2024-02-21T15:19:16;24.98;;;6.15;;
35644;SDS011;21764;52.042;6.830;2024-02-21T15:24:17;15.38;;;5.78;;
35644;SDS011;21764;52.042;6.830;2024-02-21T15:29:18;25.98;;;7.45;;
35644;SDS011;21764;52.042;6.830;2024-02-21T15:34:20;13.48;;;4.72;;
35644;SDS011;21764;52.042;6.830;2024-02-21T15:39:21;22.75;;;5.95;;
35644;SDS011;21764;52.042;6.830;2024-02-21T15:44:23;12.88;;;5.07;;
35644;SDS011;21764;52.042;6.830;2024-02-21T15:49:24;19.92;;;5.60;;
35644;SDS011;21764;52.042;6.830;2024-02-21T15:54:25;15.30;;;4.90;;
35644;SDS011;21764;52.042;6.830;2024-02-21T15:59:27;19.02;;;6.32;;
35644;SDS011;21764;52.042;6.830;2024-02-21T16:04:31;24.30;;;6.88;;
35644;SDS011;21764;52.042;6.830;2024-02-21T16:09:32;23.42;;;7.20;;
35644;SDS011;21764;52.042;6.830;2024-02-21T16:14:33;16.27;;;5.72;;
35644;SDS011;21764;52.042;6.830;2024-02-21T16:19:37;13.90;;;6.13;;
35644;SDS011;21764;52.042;6.830;2024-02-21T16:24:38;16.52;;;5.53;;
35644;SDS011;21764;52.042;6.830;2024-02-21T16:29:40;21.23;;;6.47;;
35644;SDS011;21764;52.042;6.830;2024-02-21T16:34:40;17.38;;;6.68;;
35644;SDS011;21764;52.042;6.830;2024-02-21T16:39:41;28.80;;;8.45;;
35644;SDS011;21764;52.042;6.830;2024-02-21T16:44:42;13.60;;;5.50;;
35644;SDS011;21764;52.042;6.830;2024-02-21T16:49:43;13.93;;;5.65;;
35644;SDS011;21764;52.042;6.830;2024-02-21T16:54:44;19.00;;;6.72;;
35644;SDS011;21764;52.042;6.830;2024-02-21T16:59:45;18.25;;;6.38;;
35644;SDS011;21764;52.042;6.830;2024-02-21T17:04:46;16.25;;;6.18;;
35644;SDS011;21764;52.042;6.830;2024-02-21T17:09:49;15.50;;;5.78;;
35644;SDS011;21764;52.042;6.830;2024-02-21T17:14:50;16.73;;;6.45;;
35644;SDS011;21764;52.042;6.830;2024-02-21T17:19:51;12.82;;;5.72;;
35644;SDS011;21764;52.042;6.830;2024-02-21T17:24:52;14.15;;;6.00;;
35644;SDS011;21764;52.042;6.830;2024-02-21T17:29:53;12.40;;;4.18;;
35644;SDS011;21764;52.042;6.830;2024-02-21T17:34:55;16.05;;;5.78;;
35644;SDS011;21764;52.042;6.830;2024-02-21T17:39:56;13.35;;;7.00;;
35644;SDS011;21764;52.042;6.830;2024-02-21T17:44:57;19.42;;;7.30;;
35644;SDS011;21764;52.042;6.830;2024-02-21T17:49:58;23.67;;;8.02;;
35644;SDS011;21764;52.042;6.830;2024-02-21T17:54:59;20.77;;;8.05;;
35644;SDS011;21764;52.042;6.830;2024-02-21T18:00:00;21.73;;;7.57;;
35644;SDS011;21764;52.042;6.830;2024-02-21T18:05:02;15.82;;;6.70;;
35644;SDS011;21764;52.042;6.830;2024-02-21T18:10:04;19.42;;;8.93;;
35644;SDS011;21764;52.042;6.830;2024-02-21T18:15:05;17.10;;;7.95;;
35644;SDS011;21764;52.042;6.830;2024-02-21T18:20:06;23.75;;;9.68;;
35644;SDS011;21764;52.042;6.830;2024-02-21T18:25:09;22.17;;;8.02;;
35644;SDS011;21764;52.042;6.830;2024-02-21T18:30:10;19.08;;;9.00;;
35644;SDS011;21764;52.042;6.830;2024-02-21T18:35:11;21.85;;;9.10;;
35644;SDS011;21764;52.042;6.830;2024-02-21T18:40:14;19.05;;;7.65;;
35644;SDS011;21764;52.042;6.830;2024-02-21T18:45:17;21.40;;;9.82;;
35644;SDS011;21764;52.042;6.830;2024-02-21T18:50:18;14.38;;;5.90;;
35644;SDS011;21764;52.042;6.830;2024-02-21T18:55:19;20.70;;;7.90;;
35644;SDS011;21764;52.042;6.830;2024-02-21T19:00:20;18.23;;;6.50;;
35644;SDS011;21764;52.042;6.830;2024-02-21T19:05:25;20.10;;;8.63;;
35644;SDS011;21764;52.042;6.830;2024-02-21T19:10:26;22.60;;;9.30;;
35644;SDS011;21764;52.042;6.830;2024-02-21T19:15:27;23.52;;;10.23;;
35644;SDS011;21764;52.042;6.830;2024-02-21T19:20:29;26.15;;;9.95;;
35644;SDS011;21764;52.042;6.830;2024-02-21T19:25:30;24.00;;;9.65;;
35644;SDS011;21764;52.042;6.830;2024-02-21T19:30:31;27.60;;;11.57;;
35644;SDS011;21764;52.042;6.830;2024-02-21T19:35:32;18.77;;;9.23;;
35644;SDS011;21764;52.042;6.830;2024-02-21T19:40:33;23.40;;;10.55;;
35644;SDS011;21764;52.042;6.830;2024-02-21T19:45:34;24.95;;;9.02;;
35644;SDS011;21764;52.042;6.830;2024-02-21T19:50:35;22.17;;;10.25;;
35644;SDS011;21764;52.042;6.830;2024-02-21T19:55:38;29.25;;;11.52;;
35644;SDS011;21764;52.042;6.830;2024-02-21T20:00:39;20.45;;;10.10;;
35644;SDS011;21764;52.042;6.830;2024-02-21T20:05:41;28.65;;;11.10;;
35644;SDS011;21764;52.042;6.830;2024-02-21T20:10:42;26.30;;;13.07;;
35644;SDS011;21764;52.042;6.830;2024-02-21T20:15:43;26.52;;;12.63;;
35644;SDS011;21764;52.042;6.830;2024-02-21T20:20:44;29.10;;;13.13;;
35644;SDS011;21764;52.042;6.830;2024-02-21T20:25:48;27.50;;;14.23;;
35644;SDS011;21764;52.042;6.830;2024-02-21T20:30:52;29.08;;;15.30;;
35644;SDS011;21764;52.042;6.830;2024-02-21T20:35:53;34.58;;;15.07;;
35644;SDS011;21764;52.042;6.830;2024-02-21T20:40:54;24.58;;;13.80;;
35644;SDS011;21764;52.042;6.830;2024-02-21T20:45:55;26.00;;;14.88;;
35644;SDS011;21764;52.042;6.830;2024-02-21T20:50:57;27.83;;;15.02;;
35644;SDS011;21764;52.042;6.830;2024-02-21T20:55:58;34.80;;;17.92;;
35644;SDS011;21764;52.042;6.830;2024-02-21T21:00:59;32.33;;;17.65;;
35644;SDS011;21764;52.042;6.830;2024-02-21T21:06:00;33.60;;;14.70;;
35644;SDS011;21764;52.042;6.830;2024-02-21T21:11:01;31.63;;;18.33;;
35644;SDS011;21764;52.042;6.830;2024-02-21T21:16:02;42.30;;;19.23;;
35644;SDS011;21764;52.042;6.830;2024-02-21T21:21:04;25.00;;;15.63;;
35644;SDS011;21764;52.042;6.830;2024-02-21T21:26:05;30.70;;;15.82;;
35644;SDS011;21764;52.042;6.830;2024-02-21T21:31:07;30.52;;;16.77;;
35644;SDS011;21764;52.042;6.830;2024-02-21T21:36:08;30.90;;;16.77;;
35644;SDS011;21764;52.042;6.830;2024-02-21T21:41:09;33.58;;;15.75;;
35644;SDS011;21764;52.042;6.830;2024-02-21T21:46:11;32.58;;;16.65;;
35644;SDS011;21764;52.042;6.830;2024-02-21T21:51:13;28.67;;;14.68;;
35644;SDS011;21764;52.042;6.830;2024-02-21T21:56:14;20.95;;;13.00;;
35644;SDS011;21764;52.042;6.830;2024-02-21T22:01:16;26.70;;;14.32;;
35644;SDS011;21764;52.042;6.830;2024-02-21T22:06:17;23.45;;;15.25;;
35644;SDS011;21764;52.042;6.830;2024-02-21T22:11:19;25.08;;;15.13;;
35644;SDS011;21764;52.042;6.830;2024-02-21T22:16:20;24.55;;;15.07;;
35644;SDS011;21764;52.042;6.830;2024-02-21T22:21:21;26.20;;;14.48;;
35644;SDS011;21764;52.042;6.830;2024-02-21T22:26:22;23.75;;;14.70;;
35644;SDS011;21764;52.042;6.830;2024-02-21T22:31:23;20.65;;;15.27;;
35644;SDS011;21764;52.042;6.830;2024-02-21T22:36:24;22.25;;;14.50;;
35644;SDS011;21764;52.042;6.830;2024-02-21T22:41:25;21.23;;;14.25;;
35644;SDS011;21764;52.042;6.830;2024-02-21T22:46:26;23.13;;;16.60;;
35644;SDS011;21764;52.042;6.830;2024-02-21T22:51:27;21.65;;;15.23;;
35644;SDS011;21764;52.042;6.830;2024-02-21T22:56:28;19.65;;;11.70;;
35644;SDS011;21764;52.042;6.830;2024-02-21T23:01:29;19.67;;;14.40;;
35644;SDS011;21764;52.042;6.830;2024-02-21T23:06:30;18.05;;;13.77;;
35644;SDS011;21764;52.042;6.830;2024-02-21T23:11:31;16.40;;;12.00;;
35644;SDS011;21764;52.042;6.830;2024-02-21T23:16:34;11.48;;;9.38;;
35644;SDS011;21764;52.042;6.830;2024-02-21T23:21:35;12.60;;;10.70;;
35644;SDS011;21764;52.042;6.830;2024-02-21T23:26:36;14.32;;;10.65;;
35644;SDS011;21764;52.042;6.830;2024-02-21T23:31:38;12.82;;;10.05;;
35644;SDS011;21764;52.042;6.830;2024-02-21T23:36:39;13.65;;;9.02;;
35644;SDS011;21764;52.042;6.830;2024-02-21T23:41:40;12.10;;;9.50;;
35644;SDS011;21764;52.042;6.830;2024-02-21T23:46:41;9.77;;;8.25;;
35644;SDS011;21764;52.042;6.830;2024-02-21T23:51:42;8.68;;;7.78;;
35644;SDS011;21764;52.042;6.830;2024-02-21T23:56:43;8.75;;;7.95;;
